Terminal Aerodrome Forecast
Issued by NWS Sioux Falls, SD

Home | Current Version | Previous Version | Graphics & Text | Print | Product List | Glossary On
Versions: 1 2 3 4 5 6 7 8 9 10 11 12 13 14
128
FTUS43 KFSD 232329
TAFHON
TAF
KHON 232329Z 2400/2424 VRB06KT P6SM FEW035
      TEMPO 2400/2401 32014G22KT
     FM240100 33013KT P6SM SCT040
     FM240300 31006KT P6SM FEW250
     FM241700 33010KT P6SM SCT130=

USA.gov is the U.S. government's official web portal to all federal, state and local government web resources and services.